INFORMACIÓN METAR y TAF
METAR FOR ESOW
ADDS - METARS form results

(1602 UTC 30 May 2020)
Data provider http://aviationweather.gov/metar/data/
 
METAR text: ESOW 301550Z AUTO 04013KT 010V080 9999 NCD 18/04 Q1030
Conditions at: ESOW (VASTERAS/HASSLO , SE) observed 1550 UTC 30 May 2020
Temperature: 18.0°C (64°F)
Dewpoint: 4.0°C (39°F) [RH = 39%]
Pressure (altimeter): 30.41 inches Hg (1030.0 mb)
Winds: from the NE (40 degrees) at 15 MPH (13 knots; 6.7 m/s)
Visibility: 6 or more miles (10+ km)
Ceiling: at least 12,000 feet AGL
Clouds: sky clear below 12,000 feet AGL
Weather: no significant weather observed at this time

METAR text: ESOW 301520Z AUTO 04012KT 010V080 9999 NCD 18/04 Q1030
Conditions at: ESOW (VASTERAS/HASSLO , SE) observed 1520 UTC 30 May 2020
Temperature: 18.0°C (64°F)
Dewpoint: 4.0°C (39°F) [RH = 39%]
Pressure (altimeter): 30.41 inches Hg (1030.0 mb)
Winds: from the NE (40 degrees) at 14 MPH (12 knots; 6.2 m/s)
Visibility: 6 or more miles (10+ km)
Ceiling: at least 12,000 feet AGL
Clouds: sky clear below 12,000 feet AGL
Weather: no significant weather observed at this time

 MAPA DE AEROPUERTO

 INFORMACIÓN DE PISTA
Pista 01 Longitud 8468 ft Ancho 164 ft
Elevación 5 ft Umbral desplazado 1312 ft Rumbo de pista 8
Pista 19 Longitud 8468 ft Ancho 164 ft
Elevación 21 ft Umbral desplazado 0 ft Rumbo de pista 188

 FRECUANCIAS DEL AEROPUERTO
Tipo APP Nombre CON Frecuencia 125.95 MHZ
Tipo TWR Nombre TWR Frecuencia 130.6 MHZ

 RADIO AYUDAS DEL AEROPUERTO
Tipo VOR-DME Nombre Aros Frecuencia 112800 KHZ



Powered by Virtual Airlines Manager [v2.6.2]